Terminal Aerodrome Forecast
Issued by NWS

Home | Current Version | Previous Version | Text Only | Print | Product List | Glossary On
Versions: 1 2 3 4 5 6 7 8 9 10 11 12
000
FTUS45 KRIW 040531
TAFJAC
TAF
KJAC 040531Z 0406/0506 VRB05KT P6SM FEW120 SCT200
     FM041700 21009KT P6SM FEW110
     FM042100 28011KT P6SM SCT100
     FM050100 VRB05KT P6SM FEW110 BKN200
      AMD LTD TO CLD VIS AND WIND=

USA.gov is the U.S. government's official web portal to all federal, state and local government web resources and services.